createdAt,value
2023-03-31T00:02:30.121Z,12.32
2023-03-31T00:05:00.136Z,12.29
2023-03-31T00:07:29.970Z,12.36
2023-03-31T00:10:16.547Z,12.08
2023-03-31T00:12:47.975Z,12.37
2023-03-31T00:15:20.357Z,12.28
2023-03-31T00:17:50.148Z,12.23
2023-03-31T00:20:20.244Z,12.27
2023-03-31T00:22:49.963Z,12.14
2023-03-31T00:25:19.977Z,12.22
2023-03-31T00:27:50.550Z,12.17
2023-03-31T00:30:23.172Z,12.13
2023-03-31T00:32:53.497Z,12.07
2023-03-31T00:35:23.633Z,12.04
2023-03-31T00:37:54.022Z,12.20
2023-03-31T00:40:23.804Z,12.07
2023-03-31T00:42:54.311Z,11.85
2023-03-31T00:45:30.273Z,12.07
2023-03-31T00:48:06.273Z,12.01
2023-03-31T00:50:40.271Z,11.88
2023-03-31T00:53:14.438Z,11.85
2023-03-31T00:55:47.801Z,11.97
2023-03-31T00:58:20.418Z,11.72
2023-03-31T01:00:54.274Z,11.93
2023-03-31T01:03:26.643Z,11.94
2023-03-31T01:06:00.466Z,11.77
2023-03-31T01:08:31.284Z,11.74
2023-03-31T01:11:06.494Z,11.96
2023-03-31T01:13:38.864Z,11.95
2023-03-31T01:16:14.890Z,11.77
2023-03-31T01:18:46.398Z,11.77
2023-03-31T01:21:47.384Z,11.82
2023-03-31T01:24:38.151Z,11.72
2023-03-31T01:27:40.054Z,11.80
2023-03-31T01:30:45.158Z,11.97
2023-03-31T01:33:44.999Z,12.14
2023-03-31T01:36:52.362Z,12.08
2023-03-31T01:39:49.216Z,11.88
2023-03-31T01:42:28.462Z,12.14
2023-03-31T01:45:06.151Z,12.07
2023-03-31T01:47:41.171Z,11.92
2023-03-31T01:50:19.116Z,12.13
2023-03-31T01:52:53.351Z,12.13
2023-03-31T01:55:29.974Z,11.91
2023-03-31T01:58:06.043Z,11.99
2023-03-31T02:00:42.233Z,11.87
2023-03-31T02:03:18.159Z,11.94
2023-03-31T02:05:52.992Z,11.96
2023-03-31T02:08:27.260Z,11.83
2023-03-31T02:11:01.790Z,11.72
2023-03-31T02:13:34.674Z,11.94
2023-03-31T02:16:09.834Z,11.82
2023-03-31T02:18:41.951Z,11.88
2023-03-31T02:21:14.787Z,11.82
2023-03-31T02:23:48.238Z,11.81
2023-03-31T02:26:25.658Z,11.90
2023-03-31T02:28:55.693Z,11.75
2023-03-31T02:31:32.158Z,11.73
2023-03-31T02:34:03.120Z,11.74
2023-03-31T02:36:34.564Z,11.33
2023-03-31T02:39:10.473Z,11.60
2023-03-31T02:41:43.059Z,11.70
2023-03-31T02:44:13.347Z,11.74
2023-03-31T02:46:43.874Z,11.69
2023-03-31T02:49:15.473Z,11.65
2023-03-31T02:52:12.168Z,11.62
2023-03-31T02:55:14.410Z,11.59
2023-03-31T02:58:00.328Z,11.64
2023-03-31T03:00:42.606Z,11.56
2023-03-31T03:03:26.350Z,11.64
2023-03-31T03:06:07.006Z,11.67
2023-03-31T03:09:09.283Z,11.20
2023-03-31T03:11:49.894Z,11.50
2023-03-31T03:14:31.162Z,11.39
2023-03-31T03:17:06.195Z,11.58
2023-03-31T03:19:36.016Z,11.49
2023-03-31T03:22:08.739Z,11.69
2023-03-31T03:24:40.099Z,11.73
2023-03-31T03:27:09.844Z,11.70
2023-03-31T03:29:43.041Z,11.69
2023-03-31T03:32:13.065Z,11.50
2023-03-31T03:34:43.237Z,11.52
2023-03-31T03:37:12.974Z,11.51
2023-03-31T03:39:42.724Z,11.63
2023-03-31T03:42:12.483Z,11.71
2023-03-31T03:44:44.834Z,11.70
2023-03-31T03:47:14.546Z,11.72
2023-03-31T03:49:44.261Z,11.56
2023-03-31T03:52:14.016Z,11.61
2023-03-31T03:54:43.734Z,11.60
2023-03-31T03:57:13.709Z,11.69
2023-03-31T03:59:46.123Z,11.52
2023-03-31T04:02:16.400Z,11.47
2023-03-31T04:04:46.205Z,11.63
2023-03-31T04:07:15.944Z,11.47
2023-03-31T04:09:45.716Z,11.72
2023-03-31T04:12:15.470Z,11.71
2023-03-31T04:14:47.935Z,11.82
2023-03-31T04:17:18.033Z,11.89
2023-03-31T04:19:50.982Z,11.64
2023-03-31T04:22:20.778Z,11.79
2023-03-31T04:24:53.027Z,11.92
2023-03-31T04:27:23.215Z,11.70
2023-03-31T04:29:55.612Z,11.66
2023-03-31T04:32:25.812Z,11.86
2023-03-31T04:35:02.958Z,11.73
2023-03-31T04:37:34.942Z,11.80
2023-03-31T04:40:10.112Z,11.50
2023-03-31T04:42:39.890Z,11.24
2023-03-31T04:45:13.273Z,11.66
2023-03-31T04:47:43.694Z,11.51
2023-03-31T04:50:17.016Z,11.69
2023-03-31T04:52:47.864Z,11.69
2023-03-31T04:55:17.945Z,11.68
2023-03-31T04:57:47.702Z,11.54
2023-03-31T05:00:21.980Z,11.68
2023-03-31T05:02:52.096Z,11.77
2023-03-31T05:05:21.946Z,11.75
2023-03-31T05:07:51.671Z,11.61
2023-03-31T05:10:21.979Z,11.51
2023-03-31T05:12:51.820Z,11.30
2023-03-31T05:15:24.783Z,11.26
2023-03-31T05:17:54.587Z,11.40
2023-03-31T05:20:24.398Z,11.13
2023-03-31T05:22:54.165Z,10.90
2023-03-31T05:25:24.282Z,11.38
2023-03-31T05:27:54.055Z,11.42
2023-03-31T05:30:26.443Z,11.32
2023-03-31T05:32:57.222Z,11.32
2023-03-31T05:35:28.393Z,11.34
2023-03-31T05:37:58.133Z,11.41
2023-03-31T05:40:27.878Z,11.38
2023-03-31T05:42:57.656Z,11.39
2023-03-31T05:45:30.033Z,11.43
2023-03-31T05:47:59.821Z,11.50
2023-03-31T05:50:29.746Z,11.75
2023-03-31T05:52:59.938Z,11.84
2023-03-31T05:55:30.783Z,11.93
2023-03-31T05:58:02.195Z,11.83
2023-03-31T06:00:36.175Z,12.07
2023-03-31T06:03:08.098Z,11.94
2023-03-31T06:05:38.286Z,12.17
2023-03-31T06:08:08.371Z,12.08
2023-03-31T06:10:38.104Z,12.17
2023-03-31T06:13:07.816Z,12.08
2023-03-31T06:15:40.289Z,11.88
2023-03-31T06:18:11.000Z,11.88
2023-03-31T06:20:40.880Z,11.85
2023-03-31T06:23:10.584Z,11.94
2023-03-31T06:25:50.785Z,11.70
2023-03-31T06:28:22.333Z,11.87
2023-03-31T06:30:54.805Z,11.78
2023-03-31T06:33:24.864Z,11.67
2023-03-31T06:35:54.907Z,11.80
2023-03-31T06:38:24.895Z,11.88
2023-03-31T06:40:55.141Z,12.00
2023-03-31T06:43:25.540Z,12.03
2023-03-31T06:45:59.059Z,12.15
2023-03-31T06:48:30.371Z,12.31
2023-03-31T06:51:03.837Z,12.34
2023-03-31T06:53:34.004Z,12.35
2023-03-31T06:56:04.579Z,12.25
2023-03-31T06:58:34.856Z,12.40
2023-03-31T07:01:09.208Z,12.44
2023-03-31T07:03:39.543Z,12.22
2023-03-31T07:06:10.147Z,12.35
2023-03-31T07:08:40.177Z,12.25
2023-03-31T07:11:10.567Z,12.39
2023-03-31T07:13:41.028Z,12.38
2023-03-31T07:16:14.401Z,12.42
2023-03-31T07:18:45.466Z,12.31
2023-03-31T07:21:15.498Z,12.44
2023-03-31T07:23:45.595Z,12.09
2023-03-31T07:26:15.783Z,12.55
2023-03-31T07:28:45.828Z,12.58
2023-03-31T07:31:18.368Z,12.44
2023-03-31T07:33:48.089Z,12.45
2023-03-31T07:36:18.163Z,12.37
2023-03-31T07:38:49.939Z,12.47
2023-03-31T07:41:22.316Z,12.63
2023-03-31T07:43:52.876Z,12.80
2023-03-31T07:46:27.732Z,12.99
2023-03-31T07:48:58.985Z,13.02
2023-03-31T07:51:29.752Z,13.05
2023-03-31T07:53:59.475Z,12.53
2023-03-31T07:56:29.263Z,12.91
2023-03-31T07:58:59.091Z,12.72
2023-03-31T08:01:31.435Z,12.63
2023-03-31T08:04:01.457Z,12.77
2023-03-31T08:06:31.554Z,12.68
2023-03-31T08:09:01.770Z,12.74
2023-03-31T08:11:31.730Z,12.68
2023-03-31T08:14:01.689Z,12.79
2023-03-31T08:16:34.067Z,12.90
2023-03-31T08:19:05.019Z,12.90
2023-03-31T08:21:34.800Z,12.93
2023-03-31T08:24:06.098Z,12.95
2023-03-31T08:26:35.823Z,12.83
2023-03-31T08:29:05.666Z,12.57
2023-03-31T08:31:38.064Z,12.81
2023-03-31T08:34:08.807Z,12.83
2023-03-31T08:36:38.621Z,12.65
2023-03-31T08:39:08.391Z,12.91
2023-03-31T08:41:50.192Z,12.93
2023-03-31T08:44:25.021Z,13.21
2023-03-31T08:46:59.402Z,13.11
2023-03-31T08:49:31.030Z,12.97
2023-03-31T08:52:05.247Z,13.00
2023-03-31T08:54:37.064Z,12.80
2023-03-31T08:57:13.804Z,12.85
2023-03-31T08:59:44.676Z,12.47
2023-03-31T09:02:24.881Z,12.47
2023-03-31T09:05:17.719Z,12.49
2023-03-31T09:07:56.343Z,12.30
2023-03-31T09:10:42.314Z,12.17
2023-03-31T09:13:27.204Z,12.17
2023-03-31T09:16:02.608Z,12.25
2023-03-31T09:18:36.754Z,12.41
2023-03-31T09:21:15.144Z,12.37
2023-03-31T09:23:49.674Z,12.23
2023-03-31T09:26:27.906Z,12.18
2023-03-31T09:29:01.312Z,12.05
2023-03-31T09:31:31.772Z,12.17
2023-03-31T09:34:13.108Z,12.25
2023-03-31T09:36:43.067Z,12.17
2023-03-31T09:39:16.778Z,11.96
2023-03-31T09:41:49.442Z,11.88
2023-03-31T09:44:27.739Z,11.85
2023-03-31T09:46:58.731Z,11.84
2023-03-31T09:49:36.559Z,11.84
2023-03-31T09:52:09.852Z,11.78
2023-03-31T09:54:44.292Z,11.80
2023-03-31T09:57:19.246Z,11.89
2023-03-31T09:59:53.594Z,11.92
2023-03-31T10:02:38.136Z,11.87
2023-03-31T10:05:29.263Z,11.71
2023-03-31T10:08:37.082Z,11.99
2023-03-31T10:11:12.927Z,11.98
2023-03-31T10:13:48.816Z,11.95
2023-03-31T10:16:26.356Z,12.00
2023-03-31T10:18:57.503Z,11.78
2023-03-31T10:21:31.441Z,11.95
2023-03-31T10:24:03.186Z,12.09
2023-03-31T10:26:35.716Z,12.14
2023-03-31T10:29:13.083Z,12.00
2023-03-31T10:31:43.247Z,12.16
2023-03-31T10:34:19.615Z,12.26
2023-03-31T10:36:54.961Z,12.20
2023-03-31T10:39:32.073Z,12.22
2023-03-31T10:42:02.739Z,12.19
2023-03-31T10:44:35.687Z,12.04
2023-03-31T10:47:22.642Z,11.87
2023-03-31T10:49:54.679Z,12.05
2023-03-31T10:52:28.654Z,12.18
2023-03-31T10:55:01.867Z,12.18
2023-03-31T10:57:43.128Z,12.25
2023-03-31T11:00:25.442Z,12.42
2023-03-31T11:03:24.552Z,12.59
2023-03-31T11:05:57.760Z,12.37
2023-03-31T11:08:49.172Z,12.46
2023-03-31T11:11:30.198Z,12.30
2023-03-31T11:14:09.329Z,12.32
2023-03-31T11:16:48.889Z,12.56
2023-03-31T11:19:29.988Z,12.60
2023-03-31T11:22:10.021Z,12.54
2023-03-31T11:25:06.230Z,12.60
2023-03-31T11:27:53.162Z,12.65
2023-03-31T11:30:27.440Z,12.78
2023-03-31T11:33:08.498Z,12.79
2023-03-31T11:35:48.061Z,12.95
2023-03-31T11:38:32.092Z,12.82
2023-03-31T11:41:08.258Z,12.97
2023-03-31T11:43:42.870Z,12.93
2023-03-31T11:46:16.297Z,13.11
2023-03-31T11:48:50.790Z,13.13
2023-03-31T11:51:25.874Z,13.38
2023-03-31T11:53:58.524Z,13.54
2023-03-31T11:56:36.324Z,13.17
2023-03-31T11:59:07.178Z,13.31
2023-03-31T12:01:43.840Z,13.25
2023-03-31T12:04:27.251Z,13.33
2023-03-31T12:07:03.816Z,13.59
2023-03-31T12:09:41.269Z,13.40
2023-03-31T12:12:20.065Z,13.82
2023-03-31T12:14:54.664Z,14.08
2023-03-31T12:17:29.666Z,14.18
2023-03-31T12:20:02.685Z,14.40
2023-03-31T12:22:36.911Z,14.50
2023-03-31T12:25:07.454Z,14.48
2023-03-31T12:27:43.131Z,14.11
2023-03-31T12:30:18.829Z,14.29
2023-03-31T12:32:52.207Z,14.25
2023-03-31T12:35:27.546Z,14.26
2023-03-31T12:38:16.736Z,14.24
2023-03-31T12:40:57.690Z,14.15
2023-03-31T12:43:49.660Z,13.89
2023-03-31T12:46:32.380Z,14.12
2023-03-31T12:49:18.578Z,14.21
2023-03-31T12:52:06.767Z,14.30
2023-03-31T12:54:59.423Z,14.23
2023-03-31T12:57:30.097Z,14.30
2023-03-31T13:00:27.921Z,14.28
2023-03-31T13:03:28.656Z,14.42
2023-03-31T13:05:58.511Z,14.42
2023-03-31T13:08:53.588Z,14.50
2023-03-31T13:11:25.990Z,14.48
2023-03-31T13:14:02.987Z,14.78
2023-03-31T13:16:37.859Z,14.96
2023-03-31T13:19:08.088Z,14.85
2023-03-31T13:21:56.395Z,14.97
2023-03-31T13:24:27.150Z,15.17
2023-03-31T13:26:59.537Z,15.32
2023-03-31T13:29:43.064Z,15.49
2023-03-31T13:32:26.372Z,15.41
2023-03-31T13:35:01.291Z,15.53
2023-03-31T13:37:49.630Z,15.70
2023-03-31T13:40:33.629Z,15.59
2023-03-31T13:43:48.052Z,16.73
2023-03-31T13:46:42.223Z,16.24
2023-03-31T13:49:40.742Z,16.14
2023-03-31T13:52:14.102Z,16.14
2023-03-31T13:55:22.715Z,16.08
2023-03-31T13:58:33.487Z,16.28
2023-03-31T14:01:28.831Z,16.14
2023-03-31T14:04:10.704Z,16.10
2023-03-31T14:06:48.003Z,16.03
2023-03-31T14:09:24.934Z,15.76
2023-03-31T14:11:54.850Z,15.42
2023-03-31T14:14:24.628Z,15.43
2023-03-31T14:16:58.365Z,15.37
2023-03-31T14:20:00.753Z,15.04
2023-03-31T14:22:49.670Z,15.17
2023-03-31T14:25:30.870Z,14.94
2023-03-31T14:28:08.711Z,15.10
2023-03-31T14:30:47.053Z,14.93
2023-03-31T14:33:35.267Z,14.64
2023-03-31T14:36:16.068Z,14.35
2023-03-31T14:38:48.874Z,13.89
2023-03-31T14:41:29.963Z,13.62
2023-03-31T14:44:05.016Z,13.53
2023-03-31T14:46:39.254Z,13.63
2023-03-31T14:49:22.400Z,13.57
2023-03-31T14:51:54.789Z,13.41
2023-03-31T14:54:27.200Z,13.46
2023-03-31T14:57:00.056Z,13.34
2023-03-31T14:59:33.095Z,13.39
2023-03-31T15:02:04.827Z,13.46
2023-03-31T15:04:46.719Z,13.40
2023-03-31T15:07:18.364Z,13.51
2023-03-31T15:09:53.715Z,13.50
2023-03-31T15:12:26.174Z,13.40
2023-03-31T15:15:00.176Z,13.47
2023-03-31T15:17:34.380Z,13.49
2023-03-31T15:20:23.485Z,13.50
2023-03-31T15:22:53.635Z,13.59
2023-03-31T15:25:29.141Z,13.77
2023-03-31T15:28:03.263Z,13.88
2023-03-31T15:30:35.608Z,13.90
2023-03-31T15:33:19.049Z,14.04
2023-03-31T15:35:49.746Z,14.15
2023-03-31T15:38:20.643Z,14.10
2023-03-31T15:40:57.845Z,14.05
2023-03-31T15:43:32.754Z,14.06
2023-03-31T15:46:03.881Z,13.81
2023-03-31T15:48:37.183Z,13.98
2023-03-31T15:51:20.611Z,13.89
2023-03-31T15:53:53.472Z,13.69
2023-03-31T15:56:38.319Z,13.72
2023-03-31T15:59:08.904Z,13.56
2023-03-31T16:01:42.660Z,13.67
2023-03-31T16:04:15.695Z,13.66
2023-03-31T16:06:49.043Z,13.73
2023-03-31T16:09:24.144Z,13.52
2023-03-31T16:11:59.358Z,13.49
2023-03-31T16:14:33.275Z,13.35
2023-03-31T16:17:07.020Z,13.42
2023-03-31T16:19:44.555Z,13.35
2023-03-31T16:22:19.698Z,13.32
2023-03-31T16:24:49.817Z,13.19
2023-03-31T16:27:22.247Z,13.20
2023-03-31T16:29:52.038Z,13.17
2023-03-31T16:32:22.357Z,13.26
2023-03-31T16:34:59.295Z,13.43
2023-03-31T16:37:29.308Z,13.28
2023-03-31T16:39:59.603Z,13.10
2023-03-31T16:42:31.988Z,13.07
2023-03-31T16:45:13.699Z,13.00
2023-03-31T16:47:45.752Z,13.17
2023-03-31T16:50:15.987Z,13.13
2023-03-31T16:52:47.378Z,13.03
2023-03-31T16:55:17.243Z,12.99
2023-03-31T16:57:49.913Z,12.98
2023-03-31T17:00:20.722Z,12.95
2023-03-31T17:02:50.623Z,12.94
2023-03-31T17:05:21.032Z,12.94
2023-03-31T17:07:50.772Z,12.75
2023-03-31T17:10:20.780Z,13.02
2023-03-31T17:12:53.180Z,13.15
2023-03-31T17:15:23.637Z,13.18
2023-03-31T17:17:53.502Z,13.19
2023-03-31T17:20:23.572Z,13.22
2023-03-31T17:22:53.375Z,13.03
2023-03-31T17:25:23.854Z,13.26
2023-03-31T17:27:56.427Z,13.24
2023-03-31T17:30:27.717Z,13.31
2023-03-31T17:32:57.555Z,13.31
2023-03-31T17:35:27.644Z,13.30
2023-03-31T17:37:57.493Z,13.06
2023-03-31T17:40:28.198Z,13.09
2023-03-31T17:43:00.667Z,13.14
2023-03-31T17:45:30.928Z,12.81
2023-03-31T17:48:01.066Z,12.98
2023-03-31T17:50:31.348Z,12.78
2023-03-31T17:53:01.658Z,12.68
2023-03-31T17:55:31.556Z,12.82
2023-03-31T17:58:03.933Z,12.77
2023-03-31T18:00:33.965Z,12.54
2023-03-31T18:03:03.780Z,12.33
2023-03-31T18:05:34.501Z,12.22
2023-03-31T18:08:04.224Z,12.08
2023-03-31T18:10:34.555Z,12.27
2023-03-31T18:13:07.510Z,12.08
2023-03-31T18:15:37.960Z,12.35
2023-03-31T18:18:08.722Z,12.11
2023-03-31T18:20:38.485Z,12.05
2023-03-31T18:23:08.202Z,12.05
2023-03-31T18:25:38.370Z,12.18
2023-03-31T18:28:10.914Z,12.17
2023-03-31T18:30:41.330Z,12.16
2023-03-31T18:33:11.164Z,12.35
2023-03-31T18:35:41.379Z,12.30
2023-03-31T18:38:11.322Z,12.19
2023-03-31T18:40:41.098Z,12.02
2023-03-31T18:43:13.402Z,12.50
2023-03-31T18:45:43.118Z,12.44
2023-03-31T18:48:12.936Z,12.52
2023-03-31T18:50:42.940Z,12.43
2023-03-31T18:53:13.399Z,12.27
2023-03-31T18:55:43.267Z,12.28
2023-03-31T18:58:15.584Z,12.46
2023-03-31T19:00:45.508Z,12.26
2023-03-31T19:03:15.777Z,12.20
2023-03-31T19:05:45.579Z,12.13
2023-03-31T19:08:15.742Z,12.16
2023-03-31T19:10:45.481Z,12.17
2023-03-31T19:13:18.815Z,12.22
2023-03-31T19:15:48.710Z,12.19
2023-03-31T19:18:18.402Z,12.18
2023-03-31T19:20:49.553Z,11.97
2023-03-31T19:23:19.306Z,12.03
2023-03-31T19:25:49.161Z,12.14
2023-03-31T19:28:21.466Z,12.17
2023-03-31T19:30:51.937Z,12.35
2023-03-31T19:33:21.906Z,12.30
2023-03-31T19:35:51.845Z,12.13
2023-03-31T19:38:21.988Z,12.16
2023-03-31T19:40:52.101Z,12.23
2023-03-31T19:43:29.304Z,12.25
2023-03-31T19:46:00.500Z,12.14
2023-03-31T19:48:34.265Z,12.13
2023-03-31T19:51:08.584Z,12.05
2023-03-31T19:53:41.900Z,11.91
2023-03-31T19:56:13.596Z,12.00
2023-03-31T19:58:47.211Z,11.90
2023-03-31T20:01:20.417Z,11.88
2023-03-31T20:03:53.215Z,11.90
2023-03-31T20:06:25.413Z,12.02
2023-03-31T20:08:56.304Z,12.10
2023-03-31T20:11:27.095Z,12.14
2023-03-31T20:13:59.611Z,12.29
2023-03-31T20:16:31.591Z,12.25
2023-03-31T20:19:04.349Z,12.19
2023-03-31T20:21:39.918Z,12.22
2023-03-31T20:24:10.574Z,12.06
2023-03-31T20:26:40.302Z,12.12
2023-03-31T20:29:13.258Z,12.10
2023-03-31T20:31:43.686Z,12.13
2023-03-31T20:34:16.839Z,12.45
2023-03-31T20:36:49.334Z,12.34
2023-03-31T20:39:20.054Z,12.21
2023-03-31T20:41:50.649Z,12.40
2023-03-31T20:44:22.938Z,12.34
2023-03-31T20:46:52.755Z,12.42
2023-03-31T20:49:22.493Z,12.39
2023-03-31T20:51:52.210Z,12.39
2023-03-31T20:54:22.454Z,12.20
2023-03-31T20:56:52.608Z,12.18
2023-03-31T20:59:25.093Z,12.12
2023-03-31T21:01:54.862Z,12.00
2023-03-31T21:04:24.727Z,12.04
2023-03-31T21:06:54.467Z,12.17
2023-03-31T21:09:24.218Z,12.01
2023-03-31T21:11:54.335Z,11.99
2023-03-31T21:14:27.251Z,12.13
2023-03-31T21:16:57.080Z,12.09
2023-03-31T21:19:27.317Z,12.09
2023-03-31T21:21:57.074Z,12.13
2023-03-31T21:24:27.809Z,12.08
2023-03-31T21:26:57.563Z,12.05
2023-03-31T21:29:29.899Z,11.97
2023-03-31T21:32:00.672Z,11.81
2023-03-31T21:34:30.755Z,11.77
2023-03-31T21:37:01.695Z,11.65
2023-03-31T21:39:31.420Z,11.71
2023-03-31T21:42:01.151Z,11.56
2023-03-31T21:44:33.794Z,11.82
2023-03-31T21:47:03.512Z,11.70
2023-03-31T21:49:33.878Z,11.74
2023-03-31T21:52:04.687Z,11.66
2023-03-31T21:54:34.388Z,11.73
2023-03-31T21:57:04.226Z,11.41
2023-03-31T21:59:36.865Z,11.78
2023-03-31T22:02:07.193Z,11.75
2023-03-31T22:04:36.989Z,11.69
2023-03-31T22:07:06.719Z,11.81
2023-03-31T22:09:37.402Z,11.91
2023-03-31T22:12:07.345Z,11.76
2023-03-31T22:14:41.696Z,11.93
2023-03-31T22:17:11.418Z,11.65
2023-03-31T22:19:41.775Z,11.77
2023-03-31T22:22:11.663Z,11.75
2023-03-31T22:24:41.581Z,11.58
2023-03-31T22:27:11.500Z,11.59
2023-03-31T22:29:44.363Z,11.66
2023-03-31T22:32:19.955Z,11.77
2023-03-31T22:34:50.683Z,11.79
2023-03-31T22:37:20.628Z,11.46
2023-03-31T22:39:50.370Z,11.71
2023-03-31T22:42:20.084Z,11.56
2023-03-31T22:44:52.427Z,11.70
2023-03-31T22:47:22.231Z,11.69
2023-03-31T22:49:51.976Z,11.65
2023-03-31T22:52:21.746Z,11.80
2023-03-31T22:54:51.850Z,11.87
2023-03-31T22:57:22.058Z,11.83
2023-03-31T22:59:54.382Z,11.80
2023-03-31T23:02:25.080Z,11.71
2023-03-31T23:04:54.876Z,11.59
2023-03-31T23:07:24.637Z,11.64
2023-03-31T23:09:54.375Z,11.55
2023-03-31T23:12:24.113Z,11.59
2023-03-31T23:14:56.651Z,11.57
2023-03-31T23:17:26.667Z,11.53
2023-03-31T23:19:56.944Z,11.53
2023-03-31T23:22:27.801Z,11.58
2023-03-31T23:24:57.594Z,11.47
2023-03-31T23:27:27.431Z,11.55
2023-03-31T23:29:59.817Z,11.65
2023-03-31T23:32:29.560Z,11.63
2023-03-31T23:34:59.294Z,11.61
2023-03-31T23:37:29.045Z,11.65
2023-03-31T23:39:58.804Z,11.59
2023-03-31T23:42:28.546Z,11.67
2023-03-31T23:45:00.892Z,11.60
2023-03-31T23:47:30.687Z,11.66
2023-03-31T23:50:01.345Z,11.27
2023-03-31T23:52:31.117Z,11.40
2023-03-31T23:55:01.076Z,11.43
2023-03-31T23:57:31.271Z,11.48
